Time;durP1;ratioP1;P1;durP2;ratioP2;P2;SDS_P1;SDS_P2;PMS_P1;PMS_P2;Temp;Humidity;BMP_temperature;BMP_pressure;BME280_temperature;BME280_humidity;BME280_pressure;Samples;Min_cycle;Max_cycle;Signal;HPM_P1;HPM_P2
2021/05/16 00:03:31;;;;;;;20.63;5.03;;;;;9.20;99669.00;;;;10499643;28;20188;-78
2021/05/16 00:08:32;;;;;;;23.60;5.43;;;;;9.20;99674.00;;;;10515556;28;20209;-78
2021/05/16 00:13:35;;;;;;;26.50;4.67;;;;;9.20;99661.00;;;;10515583;28;20656;-79
2021/05/16 00:18:37;;;;;;;19.93;4.47;;;;;9.20;99670.00;;;;10497950;28;20250;-78
2021/05/16 00:23:38;;;;;;;24.97;4.33;;;;;9.30;99667.00;;;;10499194;28;20205;-79
2021/05/16 00:28:41;;;;;;;23.33;4.57;;;;;9.30;99668.00;;;;10515218;28;20205;-78
2021/05/16 00:33:43;;;;;;;21.20;4.73;;;;;9.30;99671.00;;;;10498353;28;20197;-78
2021/05/16 00:38:44;;;;;;;22.83;4.17;;;;;9.30;99657.00;;;;10498307;28;20189;-78
2021/05/16 00:43:46;;;;;;;17.07;4.53;;;;;9.20;99661.00;;;;10497127;28;20270;-78
2021/05/16 00:48:48;;;;;;;27.00;4.27;;;;;9.20;99653.00;;;;10497959;28;20242;-78
2021/05/16 00:53:50;;;;;;;26.47;4.10;;;;;9.20;99642.00;;;;10496991;28;20211;-78
2021/05/16 00:58:53;;;;;;;19.53;4.80;;;;;9.20;99640.00;;;;10497387;28;20617;-78
2021/05/16 01:03:55;;;;;;;20.87;4.37;;;;;9.10;99640.00;;;;10513696;28;20192;-78
2021/05/16 01:08:58;;;;;;;24.93;5.23;;;;;9.10;99636.00;;;;10529865;28;20659;-78
2021/05/16 01:14:06;;;;;;;26.77;4.93;;;;;9.10;99644.00;;;;10512861;28;20196;-78
2021/05/16 01:19:08;;;;;;;17.70;3.77;;;;;9.00;99634.00;;;;10497916;28;20216;-78
2021/05/16 01:24:18;;;;;;;19.03;4.23;;;;;9.00;99641.00;;;;10513088;28;20227;-78
2021/05/16 01:29:30;;;;;;;23.33;4.60;;;;;8.80;99643.00;;;;10488346;28;20208;-78
2021/05/16 01:34:33;;;;;;;26.27;4.20;;;;;8.70;99643.00;;;;10488349;28;20205;-78
2021/05/16 01:39:36;;;;;;;14.00;3.67;;;;;8.70;99639.00;;;;10471614;28;20801;-78
2021/05/16 01:44:39;;;;;;;14.80;4.30;;;;;8.70;99632.00;;;;10511607;28;20201;-77
2021/05/16 01:49:43;;;;;;;16.53;3.93;;;;;8.70;99639.00;;;;10537675;28;20208;-78
2021/05/16 01:54:46;;;;;;;16.60;3.90;;;;;8.70;99641.00;;;;10521275;28;20207;-78
2021/05/16 01:59:48;;;;;;;27.13;3.77;;;;;8.70;99642.00;;;;10520390;28;20234;-78
2021/05/16 02:04:51;;;;;;;21.33;4.37;;;;;8.70;99642.00;;;;10461607;28;20263;-78
2021/05/16 02:09:53;;;;;;;19.93;5.23;;;;;8.70;99635.00;;;;10477101;28;20256;-78
2021/05/16 02:14:56;;;;;;;22.03;4.43;;;;;8.70;99641.00;;;;10493908;28;20232;-78
2021/05/16 02:19:58;;;;;;;19.57;4.87;;;;;8.60;99638.00;;;;10510178;28;20190;-78
2021/05/16 02:25:00;;;;;;;24.97;4.70;;;;;8.50;99626.00;;;;10506813;28;20197;-79
2021/05/16 02:30:08;;;;;;;21.63;4.20;;;;;8.40;99628.00;;;;10485106;28;20228;-78
2021/05/16 02:35:14;;;;;;;18.00;4.50;;;;;8.30;99633.00;;;;10480721;28;20268;-78
2021/05/16 02:40:22;;;;;;;15.83;4.00;;;;;8.20;99629.00;;;;10476735;28;20198;-78
2021/05/16 02:45:24;;;;;;;16.77;4.27;;;;;8.30;99628.00;;;;10475494;28;20713;-78
2021/05/16 02:50:30;;;;;;;21.13;4.67;;;;;8.40;99627.00;;;;10476287;28;20224;-78
2021/05/16 02:55:34;;;;;;;24.50;4.97;;;;;8.40;99626.00;;;;10493153;28;20268;-78
2021/05/16 03:00:39;;;;;;;19.63;4.20;;;;;8.40;99613.00;;;;10500227;28;20232;-78
2021/05/16 03:05:42;;;;;;;17.60;4.57;;;;;8.40;99618.00;;;;10499548;28;20220;-78
2021/05/16 03:10:44;;;;;;;24.07;5.27;;;;;8.50;99624.00;;;;10493600;28;20216;-79
2021/05/16 03:15:48;;;;;;;24.20;4.10;;;;;8.60;99613.00;;;;10461349;28;20284;-79
2021/05/16 03:20:51;;;;;;;20.23;4.60;;;;;8.60;99622.00;;;;10475493;28;20239;-79
2021/05/16 03:26:00;;;;;;;15.97;3.80;;;;;8.60;99614.00;;;;10482789;28;20598;-79
2021/05/16 03:31:02;;;;;;;18.70;4.00;;;;;8.50;99607.00;;;;10502480;28;20217;-78
2021/05/16 03:36:05;;;;;;;25.33;4.80;;;;;8.40;99611.00;;;;10502639;28;20197;-78
2021/05/16 03:41:07;;;;;;;23.17;4.70;;;;;8.50;99624.00;;;;10503052;28;20215;-78
2021/05/16 03:46:10;;;;;;;22.60;6.33;;;;;8.50;99618.00;;;;10519302;28;20295;-78
2021/05/16 03:51:12;;;;;;;19.30;4.80;;;;;8.50;99628.00;;;;10501444;28;20761;-78
2021/05/16 03:56:13;;;;;;;24.87;4.77;;;;;8.50;99619.00;;;;10498162;28;20264;-79
2021/05/16 04:01:15;;;;;;;15.23;4.77;;;;;8.50;99632.00;;;;10517649;28;20697;-78
2021/05/16 04:06:17;;;;;;;21.17;4.63;;;;;8.50;99634.00;;;;10517189;28;20239;-79
2021/05/16 04:11:19;;;;;;;16.17;4.60;;;;;8.50;99631.00;;;;10518857;28;20266;-78
2021/05/16 04:16:21;;;;;;;13.13;3.93;;;;;8.40;99633.00;;;;10516501;28;20189;-79
2021/05/16 04:21:23;;;;;;;15.53;3.73;;;;;8.20;99630.00;;;;10517639;28;20215;-78
2021/05/16 04:26:24;;;;;;;14.43;4.73;;;;;8.20;99631.00;;;;10534901;28;20201;-78
2021/05/16 04:31:26;;;;;;;16.30;5.43;;;;;8.30;99635.00;;;;10533555;28;20234;-79
2021/05/16 04:36:28;;;;;;;17.63;5.80;;;;;8.60;99644.00;;;;10517008;28;20556;-78
2021/05/16 04:41:33;;;;;;;15.57;5.53;;;;;9.00;99642.00;;;;10516401;28;20200;-79
2021/05/16 04:46:35;;;;;;;19.13;5.53;;;;;9.20;99644.00;;;;10500103;28;20203;-78
2021/05/16 04:51:37;;;;;;;22.87;6.43;;;;;9.50;99650.00;;;;10499777;28;20189;-79
2021/05/16 04:56:38;;;;;;;15.97;5.87;;;;;9.80;99659.00;;;;10515371;28;20201;-79
2021/05/16 05:01:40;;;;;;;17.97;5.70;;;;;10.10;99653.00;;;;10497956;28;20219;-79
2021/05/16 05:06:42;;;;;;;13.60;5.73;;;;;10.00;99666.00;;;;10515097;28;20213;-79
2021/05/16 05:11:44;;;;;;;19.63;5.70;;;;;10.10;99663.00;;;;10510011;28;20184;-77
2021/05/16 05:16:46;;;;;;;17.90;6.43;;;;;10.40;99674.00;;;;10509903;28;20250;-77
2021/05/16 05:21:48;;;;;;;22.10;4.70;;;;;10.60;99672.00;;;;10516202;28;20251;-77
2021/05/16 05:26:49;;;;;;;23.17;5.50;;;;;11.20;99679.00;;;;10545503;28;20196;-77
2021/05/16 05:31:51;;;;;;;17.97;5.43;;;;;11.30;99668.00;;;;10548451;28;20228;-77
2021/05/16 05:36:53;;;;;;;13.87;5.20;;;;;11.70;99677.00;;;;10533807;28;20258;-77
2021/05/16 05:41:58;;;;;;;14.70;4.10;;;;;11.40;99677.00;;;;10501632;28;20197;-77
2021/05/16 05:47:02;;;;;;;12.57;3.73;;;;;11.90;99682.00;;;;10474995;28;20210;-77
2021/05/16 05:52:04;;;;;;;16.40;5.07;;;;;12.10;99681.00;;;;10509719;28;20200;-77
2021/05/16 05:57:06;;;;;;;11.00;3.80;;;;;12.30;99696.00;;;;10513473;28;20242;-77
2021/05/16 06:02:08;;;;;;;14.13;4.43;;;;;12.80;99696.00;;;;10492684;28;20193;-77
2021/05/16 06:07:10;;;;;;;12.57;4.57;;;;;12.80;99700.00;;;;10514485;28;20208;-77
2021/05/16 06:12:14;;;;;;;15.33;4.23;;;;;13.50;99700.00;;;;10516913;28;20197;-77
2021/05/16 06:17:16;;;;;;;16.53;3.50;;;;;13.70;99706.00;;;;10492744;28;20193;-77
2021/05/16 06:22:18;;;;;;;14.27;3.50;;;;;14.00;99708.00;;;;10510449;28;20185;-77
2021/05/16 06:27:20;;;;;;;12.77;3.53;;;;;14.30;99708.00;;;;10491927;28;20217;-77
2021/05/16 06:32:22;;;;;;;12.00;3.50;;;;;14.70;99712.00;;;;10477827;28;20251;-77
2021/05/16 06:37:24;;;;;;;14.17;3.80;;;;;14.70;99716.00;;;;10495270;28;20787;-77
2021/05/16 06:42:26;;;;;;;13.17;4.00;;;;;14.90;99708.00;;;;10549429;28;20994;-77
2021/05/16 06:47:28;;;;;;;14.30;3.70;;;;;15.40;99703.00;;;;10499157;28;20209;-77
2021/05/16 06:52:30;;;;;;;12.97;3.43;;;;;16.30;99699.00;;;;10532801;28;20533;-77
2021/05/16 06:57:32;;;;;;;15.13;3.70;;;;;16.00;99693.00;;;;10515541;28;20193;-77
2021/05/16 07:02:35;;;;;;;13.32;3.83;;;;;16.60;99695.00;;;;10490729;28;20612;-77
2021/05/16 07:07:37;;;;;;;11.88;3.40;;;;;16.00;99706.00;;;;10517977;28;20216;-77
2021/05/16 07:12:39;;;;;;;13.07;3.33;;;;;16.30;99700.00;;;;10532829;28;20329;-78
2021/05/16 07:17:41;;;;;;;12.87;3.63;;;;;16.90;99688.00;;;;10493827;28;20201;-78
2021/05/16 07:22:42;;;;;;;11.70;3.20;;;;;16.40;99696.00;;;;10507952;28;20194;-78
2021/05/16 07:27:46;;;;;;;12.93;3.63;;;;;16.90;99693.00;;;;10526926;28;20260;-78
2021/05/16 07:32:48;;;;;;;9.15;3.42;;;;;17.80;99692.00;;;;10521068;28;20255;-78
2021/05/16 07:37:49;;;;;;;12.55;3.60;;;;;18.50;99687.00;;;;10517092;28;20194;-79
2021/05/16 07:42:51;;;;;;;10.77;3.22;;;;;19.20;99680.00;;;;10456370;28;20255;-78
2021/05/16 07:47:53;;;;;;;11.07;3.28;;;;;18.80;99675.00;;;;10508681;28;20296;-78
2021/05/16 07:52:55;;;;;;;10.25;3.50;;;;;17.90;99686.00;;;;10516727;28;20193;-78
2021/05/16 07:57:57;;;;;;;12.40;3.00;;;;;18.50;99671.00;;;;10489513;28;20300;-78
2021/05/16 08:02:58;;;;;;;9.30;3.00;;;;;18.60;99672.00;;;;10496284;28;20200;-78
2021/05/16 08:08:01;;;;;;;11.27;4.38;;;;;18.40;99673.00;;;;10548252;28;20201;-78
2021/05/16 08:13:03;;;;;;;11.63;3.03;;;;;18.60;99654.00;;;;10491373;28;20193;-78
2021/05/16 08:18:05;;;;;;;14.13;3.80;;;;;19.80;99639.00;;;;10510918;28;20181;-78
2021/05/16 08:23:07;;;;;;;9.27;2.65;;;;;20.50;99633.00;;;;10516548;28;20190;-79
2021/05/16 08:28:09;;;;;;;12.43;3.45;;;;;20.70;99622.00;;;;10472803;28;20236;-78
2021/05/16 08:33:11;;;;;;;9.90;3.08;;;;;20.80;99613.00;;;;10489594;28;20193;-78
2021/05/16 08:38:13;;;;;;;11.30;3.20;;;;;20.70;99599.00;;;;10489625;28;20638;-78
2021/05/16 08:43:15;;;;;;;12.93;3.53;;;;;20.60;99612.00;;;;10456452;28;20205;-79
2021/05/16 08:48:17;;;;;;;10.52;3.15;;;;;19.50;99607.00;;;;10472074;28;20232;-79
2021/05/16 08:53:19;;;;;;;10.40;2.72;;;;;19.90;99606.00;;;;10471012;28;20259;-79
2021/05/16 08:58:21;;;;;;;13.98;2.88;;;;;19.40;99598.00;;;;10528295;28;20188;-78
2021/05/16 09:03:24;;;;;;;10.85;3.47;;;;;18.70;99602.00;;;;10504762;28;20833;-78
2021/05/16 09:08:26;;;;;;;12.85;3.40;;;;;18.00;99615.00;;;;10454844;28;20619;-78
2021/05/16 09:13:41;;;;;;;12.95;5.50;;;;;16.80;99628.00;;;;10473463;28;20197;-79
2021/05/16 09:18:42;;;;;;;15.43;5.03;;;;;15.80;99638.00;;;;10530683;28;20196;-78
2021/05/16 09:23:44;;;;;;;14.00;6.00;;;;;17.00;99633.00;;;;10549243;28;20540;-79
2021/05/16 09:28:46;;;;;;;10.02;5.30;;;;;17.40;99617.00;;;;10514017;28;20668;-78
2021/05/16 09:34:05;;;;;;;13.20;4.32;;;;;19.10;99619.00;;;;10493580;28;20530;-78
2021/05/16 09:39:31;;;;;;;8.27;3.95;;;;;20.20;99627.00;;;;10487632;28;20193;-78
2021/05/16 09:44:38;;;;;;;12.60;2.90;;;;;20.60;99610.00;;;;10539733;28;20221;-78
2021/05/16 09:49:51;;;;;;;9.60;2.60;;;;;19.60;99599.00;;;;10511137;28;20691;-78
2021/05/16 09:54:58;;;;;;;6.32;1.85;;;;;19.50;99607.00;;;;10504831;28;20197;-78
2021/05/16 10:00:00;;;;;;;9.90;2.55;;;;;19.50;99601.00;;;;10528956;28;20189;-78
2021/05/16 10:05:08;;;;;;;7.95;2.60;;;;;20.50;99582.00;;;;10514542;28;20217;-78
2021/05/16 10:10:13;;;;;;;5.82;2.60;;;;;20.90;99577.00;;;;10518672;28;20475;-79
2021/05/16 10:15:20;;;;;;;8.65;2.35;;;;;21.30;99573.00;;;;10534853;28;20185;-79
2021/05/16 10:20:25;;;;;;;6.00;2.03;;;;;21.40;99568.00;;;;10535549;28;20184;-79
2021/05/16 10:25:48;;;;;;;6.88;2.83;;;;;22.40;99568.00;;;;10534261;28;20228;-78
2021/05/16 10:31:05;;;;;;;7.72;2.47;;;;;22.00;99567.00;;;;10501814;28;20606;-79
2021/05/16 10:36:07;;;;;;;6.35;2.30;;;;;23.40;99541.00;;;;10516975;28;20197;-79
2021/05/16 10:41:19;;;;;;;4.32;2.03;;;;;22.70;99546.00;;;;10532480;28;20648;-78
2021/05/16 10:46:43;;;;;;;5.70;1.70;;;;;21.30;99532.00;;;;10500887;28;20260;-79
2021/05/16 10:51:45;;;;;;;9.50;2.22;;;;;22.10;99530.00;;;;10492610;28;20210;-79
2021/05/16 10:57:13;;;;;;;8.27;2.33;;;;;21.70;99534.00;;;;10518729;28;20201;-78
2021/05/16 11:02:53;;;;;;;5.13;2.00;;;;;22.70;99535.00;;;;10518160;28;20633;-79
2021/05/16 11:07:55;;;;;;;6.13;1.88;;;;;22.90;99523.00;;;;10531129;28;20271;-77
2021/05/16 11:13:13;;;;;;;7.13;2.00;;;;;23.50;99523.00;;;;10489646;28;20247;-77
2021/05/16 11:18:19;;;;;;;5.50;1.90;;;;;23.60;99520.00;;;;10490425;28;20197;-77
2021/05/16 11:23:31;;;;;;;4.82;2.22;;;;;24.20;99505.00;;;;10487751;28;20837;-77
2021/05/16 11:28:34;;;;;;;4.75;1.75;;;;;24.90;99504.00;;;;10473981;28;20217;-78
2021/05/16 11:33:39;;;;;;;5.90;1.77;;;;;24.70;99497.00;;;;10514895;28;20267;-78
2021/05/16 11:38:43;;;;;;;5.85;1.70;;;;;23.90;99506.00;;;;10502575;28;20207;-78
2021/05/16 11:43:45;;;;;;;4.75;1.73;;;;;23.50;99494.00;;;;10522179;28;20193;-77
2021/05/16 11:48:47;;;;;;;3.70;1.50;;;;;23.10;99491.00;;;;10499636;28;20556;-77
2021/05/16 11:53:52;;;;;;;2.90;1.08;;;;;22.80;99486.00;;;;10506214;28;20190;-77
2021/05/16 11:58:57;;;;;;;4.47;1.20;;;;;22.70;99479.00;;;;10489194;28;20185;-79
2021/05/16 12:04:04;;;;;;;5.68;1.13;;;;;22.10;99463.00;;;;10517119;28;20196;-79
2021/05/16 12:09:14;;;;;;;4.63;1.25;;;;;23.00;99461.00;;;;10549807;28;20224;-78
2021/05/16 12:14:16;;;;;;;1.75;0.88;;;;;22.40;99454.00;;;;10515166;28;20196;-78
2021/05/16 12:19:23;;;;;;;3.10;1.10;;;;;22.50;99445.00;;;;10532190;28;20267;-78
2021/05/16 12:24:29;;;;;;;2.70;1.00;;;;;23.30;99435.00;;;;10523595;28;20582;-78
2021/05/16 12:29:31;;;;;;;2.35;0.98;;;;;24.90;99425.00;;;;10513345;28;20220;-78
2021/05/16 12:34:34;;;;;;;2.50;1.00;;;;;25.80;99426.00;;;;10498388;28;20710;-78
2021/05/16 12:39:42;;;;;;;3.03;1.00;;;;;25.00;99422.00;;;;10524571;28;20193;-78
2021/05/16 12:44:44;;;;;;;1.70;1.00;;;;;25.00;99413.00;;;;10514211;28;20590;-78
2021/05/16 12:49:46;;;;;;;2.78;0.93;;;;;26.40;99417.00;;;;10512333;28;20204;-78
2021/05/16 12:54:48;;;;;;;1.63;1.10;;;;;24.40;99434.00;;;;10521029;28;20196;-78
2021/05/16 12:59:50;;;;;;;1.70;0.88;;;;;22.10;99451.00;;;;10501925;28;20669;-78
2021/05/16 13:04:54;;;;;;;2.10;0.45;;;;;19.60;99495.00;;;;10502407;28;20221;-78
2021/05/16 13:09:56;;;;;;;0.93;0.40;;;;;16.20;99536.00;;;;10502859;28;20238;-78
2021/05/16 13:14:58;;;;;;;1.40;0.45;;;;;14.10;99554.00;;;;10491995;28;20655;-79
2021/05/16 13:20:00;;;;;;;5.03;0.90;;;;;12.30;99563.00;;;;10525641;28;20189;-76
2021/05/16 13:25:05;;;;;;;2.20;0.70;;;;;11.50;99578.00;;;;10508449;28;20201;-78
2021/05/16 13:30:12;;;;;;;4.63;1.10;;;;;11.30;99584.00;;;;10491417;28;20209;-77
2021/05/16 13:35:14;;;;;;;2.23;1.10;;;;;11.30;99575.00;;;;10523300;28;20200;-76
2021/05/16 13:40:17;;;;;;;4.63;1.80;;;;;12.30;99534.00;;;;10529721;28;20185;-77
2021/05/16 13:45:19;;;;;;;2.00;0.90;;;;;15.70;99546.00;;;;10530548;28;20188;-77
2021/05/16 13:50:28;;;;;;;2.83;1.17;;;;;16.10;99532.00;;;;10498905;28;20636;-77
2021/05/16 13:55:30;;;;;;;5.30;1.50;;;;;18.80;99515.00;;;;10515006;28;20247;-77
2021/05/16 14:00:32;;;;;;;0.97;0.60;;;;;22.80;99493.00;;;;10501133;28;20209;-77
2021/05/16 14:05:34;;;;;;;3.08;0.70;;;;;24.20;99485.00;;;;10527665;28;20217;-77
2021/05/16 14:10:36;;;;;;;1.85;0.80;;;;;24.00;99480.00;;;;10522592;28;20209;-77
2021/05/16 14:15:38;;;;;;;1.58;0.70;;;;;24.90;99490.00;;;;10514477;28;20195;-77
2021/05/16 14:20:40;;;;;;;1.40;0.70;;;;;20.80;99481.00;;;;10509904;28;20194;-78
2021/05/16 14:25:42;;;;;;;2.20;1.13;;;;;23.80;99461.00;;;;10528453;28;20197;-77
2021/05/16 14:30:45;;;;;;;1.15;0.80;;;;;25.80;99462.00;;;;10528795;28;20568;-77
2021/05/16 14:35:47;;;;;;;4.95;1.38;;;;;27.80;99464.00;;;;10501461;28;20209;-77
2021/05/16 14:40:49;;;;;;;4.43;1.60;;;;;26.30;99475.00;;;;10539361;28;20193;-77
2021/05/16 14:45:56;;;;;;;2.45;1.05;;;;;21.50;99483.00;;;;10544787;28;20659;-77
2021/05/16 14:51:06;;;;;;;5.82;1.48;;;;;18.60;99477.00;;;;10510744;28;21025;-78
2021/05/16 14:56:08;;;;;;;5.45;1.40;;;;;16.60;99494.00;;;;10553400;28;20286;-78
2021/05/16 15:01:10;;;;;;;5.85;1.20;;;;;15.50;99497.00;;;;10557697;28;20184;-76
2021/05/16 15:06:12;;;;;;;4.87;1.30;;;;;15.00;99507.00;;;;10572740;28;20223;-77
2021/05/16 15:11:18;;;;;;;4.30;1.63;;;;;15.80;99522.00;;;;10558958;28;20667;-77
2021/05/16 15:16:20;;;;;;;3.30;1.10;;;;;23.80;99475.00;;;;10568703;28;20214;-77
2021/05/16 15:21:22;;;;;;;3.10;1.20;;;;;27.10;99484.00;;;;10541984;28;20194;-77
2021/05/16 15:26:24;;;;;;;2.75;0.93;;;;;27.10;99476.00;;;;10476757;28;20205;-77
2021/05/16 15:31:27;;;;;;;3.70;1.33;;;;;27.20;99480.00;;;;10527441;28;20218;-77
2021/05/16 15:36:30;;;;;;;3.40;1.20;;;;;25.40;99472.00;;;;10505041;28;20190;-77
2021/05/16 15:41:33;;;;;;;2.65;0.95;;;;;28.60;99468.00;;;;10486906;28;20265;-77
2021/05/16 15:46:35;;;;;;;3.63;1.15;;;;;26.80;99480.00;;;;10525154;28;20279;-76
2021/05/16 15:51:37;;;;;;;3.88;1.10;;;;;24.60;99484.00;;;;10529817;28;20537;-77
2021/05/16 15:56:40;;;;;;;3.75;1.20;;;;;22.70;99479.00;;;;10521267;28;20716;-77
2021/05/16 16:01:43;;;;;;;4.00;1.10;;;;;22.60;99464.00;;;;10502761;28;20276;-78
2021/05/16 16:06:45;;;;;;;2.55;1.35;;;;;22.10;99459.00;;;;10503146;28;20213;-76
2021/05/16 16:11:47;;;;;;;3.75;1.25;;;;;20.20;99452.00;;;;10471883;28;20214;-77
2021/05/16 16:16:49;;;;;;;4.35;1.75;;;;;18.30;99459.00;;;;10505707;28;20243;-77
2021/05/16 16:21:51;;;;;;;3.40;1.55;;;;;16.60;99468.00;;;;10500767;28;20521;-77
2021/05/16 16:26:52;;;;;;;2.80;1.38;;;;;15.80;99464.00;;;;10527608;28;20208;-77
2021/05/16 16:31:54;;;;;;;3.33;1.13;;;;;15.70;99468.00;;;;10487646;28;20216;-77
2021/05/16 16:36:56;;;;;;;4.77;1.40;;;;;15.60;99475.00;;;;10528383;28;20200;-77
2021/05/16 16:41:59;;;;;;;3.87;1.40;;;;;15.60;99473.00;;;;10480086;28;20650;-77
2021/05/16 16:47:02;;;;;;;3.33;1.37;;;;;15.40;99478.00;;;;10527684;28;20572;-78
2021/05/16 16:52:06;;;;;;;5.57;1.67;;;;;16.30;99482.00;;;;10493430;28;20248;-77
2021/05/16 16:57:08;;;;;;;4.73;1.50;;;;;16.70;99477.00;;;;10488405;28;20295;-78
2021/05/16 17:02:10;;;;;;;4.80;1.33;;;;;15.30;99470.00;;;;10484860;28;20235;-78
2021/05/16 17:07:13;;;;;;;2.03;1.23;;;;;15.00;99475.00;;;;10466019;28;20228;-77
2021/05/16 17:12:14;;;;;;;3.37;1.60;;;;;14.50;99483.00;;;;10449634;28;20259;-78
2021/05/16 17:17:17;;;;;;;3.63;1.80;;;;;14.50;99484.00;;;;10489019;28;20239;-77
2021/05/16 17:22:25;;;;;;;3.83;1.80;;;;;14.50;99488.00;;;;10487922;28;20184;-77
2021/05/16 17:27:27;;;;;;;3.70;2.10;;;;;14.20;99494.00;;;;10489239;28;20227;-77
2021/05/16 17:32:29;;;;;;;6.80;2.00;;;;;13.90;99499.00;;;;10522774;28;20224;-79
2021/05/16 17:37:31;;;;;;;4.50;2.00;;;;;13.70;99503.00;;;;10523198;28;20189;-77
2021/05/16 17:42:33;;;;;;;4.60;1.87;;;;;13.70;99501.00;;;;10488630;28;20243;-76
2021/05/16 17:47:36;;;;;;;4.13;1.80;;;;;13.80;99494.00;;;;10470691;28;20220;-77
2021/05/16 17:52:39;;;;;;;5.50;2.00;;;;;13.80;99503.00;;;;10470781;28;20205;-78
2021/05/16 17:57:40;;;;;;;4.03;1.80;;;;;14.00;99502.00;;;;10530765;28;20242;-78
2021/05/16 18:02:44;;;;;;;4.27;1.63;;;;;13.30;99505.00;;;;10495775;28;20189;-77
2021/05/16 18:07:47;;;;;;;7.47;1.90;;;;;12.90;99502.00;;;;10512184;28;20243;-77
2021/05/16 18:12:50;;;;;;;4.43;1.90;;;;;12.70;99506.00;;;;10494459;28;20209;-77
2021/05/16 18:17:51;;;;;;;3.73;1.43;;;;;12.70;99510.00;;;;10528035;28;20193;-77
2021/05/16 18:22:55;;;;;;;7.43;2.13;;;;;12.80;99511.00;;;;10511019;28;20741;-77
2021/05/16 18:27:56;;;;;;;5.27;2.23;;;;;12.80;99509.00;;;;10527015;28;20568;-77
2021/05/16 18:32:58;;;;;;;4.47;2.33;;;;;12.70;99506.00;;;;10511223;28;20315;-77
2021/05/16 18:38:02;;;;;;;6.83;2.30;;;;;12.50;99502.00;;;;10510967;28;20199;-77
2021/05/16 18:43:04;;;;;;;5.87;2.10;;;;;12.50;99501.00;;;;10510668;28;20197;-77
2021/05/16 18:48:06;;;;;;;4.70;1.83;;;;;12.60;99495.00;;;;10532036;28;20244;-78
2021/05/16 18:53:09;;;;;;;6.37;2.10;;;;;12.50;99487.00;;;;10486542;28;20213;-78
2021/05/16 18:58:17;;;;;;;4.70;2.30;;;;;12.30;99502.00;;;;10491356;28;20235;-78
2021/05/16 19:03:20;;;;;;;3.50;2.20;;;;;12.20;99503.00;;;;10518953;28;20259;-78
2021/05/16 19:08:21;;;;;;;6.50;2.50;;;;;12.10;99503.00;;;;10515939;28;20205;-78
2021/05/16 19:13:23;;;;;;;7.33;2.77;;;;;12.10;99507.00;;;;10547909;28;20216;-78
2021/05/16 19:18:25;;;;;;;4.57;3.00;;;;;11.90;99522.00;;;;10527088;28;20256;-77
2021/05/16 19:23:28;;;;;;;5.60;3.60;;;;;11.80;99525.00;;;;10510591;28;20215;-78
2021/05/16 19:28:30;;;;;;;8.57;4.30;;;;;11.80;99511.00;;;;10495395;28;20216;-78
2021/05/16 19:33:32;;;;;;;6.27;2.93;;;;;11.80;99510.00;;;;10532901;28;20209;-78
2021/05/16 19:38:35;;;;;;;6.63;2.47;;;;;11.80;99518.00;;;;10517507;28;20189;-78
2021/05/16 19:43:37;;;;;;;7.27;2.57;;;;;11.70;99514.00;;;;10519312;28;20204;-78
2021/05/16 19:48:39;;;;;;;4.53;1.80;;;;;11.70;99515.00;;;;10535140;28;20189;-79
2021/05/16 19:53:41;;;;;;;6.03;2.30;;;;;11.70;99521.00;;;;10493320;28;20255;-77
2021/05/16 19:58:43;;;;;;;7.43;2.67;;;;;11.70;99538.00;;;;10497637;28;20209;-78
2021/05/16 20:03:45;;;;;;;6.53;2.27;;;;;11.60;99572.00;;;;10465204;28;20198;-78
2021/05/16 20:08:46;;;;;;;7.00;2.30;;;;;11.30;99576.00;;;;10484736;28;20210;-78
2021/05/16 20:14:08;;;;;;;5.17;2.10;;;;;10.90;99578.00;;;;10467747;28;20669;-77
2021/05/16 20:19:10;;;;;;;6.67;2.40;;;;;10.70;99563.00;;;;10465664;28;20186;-78
2021/05/16 20:24:13;;;;;;;7.80;3.10;;;;;10.60;99557.00;;;;10467537;28;20250;-78
2021/05/16 20:29:17;;;;;;;4.57;2.43;;;;;10.50;99555.00;;;;10510090;28;20209;-76
2021/05/16 20:34:19;;;;;;;4.47;2.97;;;;;10.50;99544.00;;;;10491183;28;20238;-78
2021/05/16 20:39:21;;;;;;;6.73;2.90;;;;;10.40;99536.00;;;;10523594;28;20196;-77
2021/05/16 20:44:24;;;;;;;6.90;2.90;;;;;10.40;99549.00;;;;10506408;28;20209;-77
2021/05/16 20:49:26;;;;;;;5.87;2.63;;;;;10.40;99545.00;;;;10506590;28;20200;-78
2021/05/16 20:54:27;;;;;;;5.70;2.80;;;;;10.40;99552.00;;;;10505333;28;20203;-77
2021/05/16 20:59:29;;;;;;;4.27;2.77;;;;;10.40;99552.00;;;;10490161;28;20192;-76
2021/05/16 21:04:31;;;;;;;7.67;3.10;;;;;10.50;99549.00;;;;10505419;28;20193;-76
2021/05/16 21:09:33;;;;;;;9.13;4.03;;;;;10.50;99545.00;;;;10507113;28;20204;-77
2021/05/16 21:14:37;;;;;;;6.40;3.20;;;;;10.50;99542.00;;;;10523924;28;20242;-76
2021/05/16 21:19:39;;;;;;;6.43;3.20;;;;;10.50;99549.00;;;;10521859;28;20583;-77
2021/05/16 21:24:41;;;;;;;7.73;3.43;;;;;10.50;99542.00;;;;10498489;28;20199;-77
2021/05/16 21:29:43;;;;;;;8.97;3.90;;;;;10.50;99547.00;;;;10563948;28;20208;-77
2021/05/16 21:34:45;;;;;;;11.23;4.33;;;;;10.50;99555.00;;;;10546252;28;20262;-77
2021/05/16 21:39:50;;;;;;;6.20;3.40;;;;;10.50;99557.00;;;;10563154;28;20184;-77
2021/05/16 21:44:52;;;;;;;4.73;2.83;;;;;10.50;99551.00;;;;10545958;28;20204;-77
2021/05/16 21:49:53;;;;;;;5.37;3.23;;;;;10.50;99550.00;;;;10513101;28;20242;-77
2021/05/16 21:54:55;;;;;;;8.00;3.47;;;;;10.60;99546.00;;;;10533616;28;20203;-77
2021/05/16 21:59:57;;;;;;;4.57;2.40;;;;;10.50;99548.00;;;;10543024;28;20181;-78
2021/05/16 22:04:59;;;;;;;6.60;2.90;;;;;10.50;99551.00;;;;10532964;28;20205;-77
2021/05/16 22:10:03;;;;;;;6.87;2.33;;;;;10.40;99556.00;;;;10514049;28;20216;-77
2021/05/16 22:15:06;;;;;;;2.37;1.90;;;;;10.30;99551.00;;;;10511530;28;20197;-77
2021/05/16 22:20:08;;;;;;;3.97;1.50;;;;;10.20;99548.00;;;;10494952;28;20189;-77
2021/05/16 22:25:11;;;;;;;3.33;1.97;;;;;10.00;99549.00;;;;10494250;28;20200;-77
2021/05/16 22:30:17;;;;;;;4.40;2.20;;;;;10.00;99541.00;;;;10544244;28;20953;-77
2021/05/16 22:35:21;;;;;;;6.50;3.50;;;;;10.00;99538.00;;;;10528204;28;20193;-77
2021/05/16 22:40:25;;;;;;;9.23;5.10;;;;;9.90;99560.00;;;;10527917;28;20238;-77
2021/05/16 22:45:29;;;;;;;15.37;6.80;;;;;9.90;99553.00;;;;10510355;28;20205;-77
2021/05/16 22:50:31;;;;;;;16.00;7.93;;;;;9.90;99554.00;;;;10527757;28;20266;-77
2021/05/16 22:55:33;;;;;;;16.93;7.73;;;;;10.00;99556.00;;;;10527269;28;20262;-77
2021/05/16 23:00:41;;;;;;;12.47;5.77;;;;;10.10;99556.00;;;;10525905;28;20189;-77
2021/05/16 23:05:43;;;;;;;11.63;5.97;;;;;10.10;99563.00;;;;10510201;28;20564;-77
2021/05/16 23:10:45;;;;;;;13.93;5.97;;;;;10.10;99547.00;;;;10525811;28;20216;-77
2021/05/16 23:15:48;;;;;;;9.80;4.90;;;;;10.10;99560.00;;;;10525923;28;20197;-77
2021/05/16 23:20:50;;;;;;;7.90;4.27;;;;;10.10;99553.00;;;;10508669;28;20197;-77
2021/05/16 23:25:52;;;;;;;13.63;4.53;;;;;10.10;99546.00;;;;10508199;28;20209;-77
2021/05/16 23:30:54;;;;;;;8.53;4.23;;;;;10.10;99543.00;;;;10508289;28;20266;-77
2021/05/16 23:35:56;;;;;;;7.17;3.93;;;;;10.00;99565.00;;;;10491634;28;20192;-77
2021/05/16 23:40:58;;;;;;;8.67;3.77;;;;;10.00;99555.00;;;;10525013;28;20242;-77
2021/05/16 23:46:02;;;;;;;9.20;3.87;;;;;10.10;99545.00;;;;10507629;28;20205;-77
2021/05/16 23:51:07;;;;;;;6.83;2.50;;;;;10.10;99550.00;;;;10508177;28;20205;-77
2021/05/16 23:56:09;;;;;;;8.87;2.90;;;;;10.00;99540.00;;;;10539777;28;20197;-77
